createdAt,value
2022-10-25T00:01:18.194Z,49.58
2022-10-25T00:03:45.877Z,54.97
2022-10-25T00:06:13.245Z,55.53
2022-10-25T00:08:40.602Z,51.28
2022-10-25T00:11:08.507Z,61.35
2022-10-25T00:13:35.930Z,56.17
2022-10-25T00:16:03.316Z,61.65
2022-10-25T00:18:30.913Z,54.30
2022-10-25T00:20:58.269Z,69.18
2022-10-25T00:23:25.623Z,62.78
2022-10-25T00:26:07.174Z,72.53
2022-10-25T00:28:34.577Z,59.70
2022-10-25T00:31:03.303Z,56.70
2022-10-25T00:33:31.507Z,63.75
2022-10-25T00:36:06.632Z,63.05
2022-10-25T00:38:34.242Z,71.00
2022-10-25T00:41:01.606Z,63.50
2022-10-25T00:43:34.995Z,67.12
2022-10-25T00:46:05.466Z,64.72
2022-10-25T00:48:32.926Z,64.93
2022-10-25T00:51:00.260Z,67.65
2022-10-25T00:53:29.593Z,62.70
2022-10-25T00:56:10.404Z,70.12
2022-10-25T00:58:38.004Z,68.43
2022-10-25T01:01:06.437Z,76.78
2022-10-25T01:03:34.658Z,72.70
2022-10-25T01:06:02.290Z,72.93
2022-10-25T01:08:29.602Z,66.15
2022-10-25T01:10:56.904Z,74.50
2022-10-25T01:13:24.502Z,74.43
2022-10-25T01:16:13.343Z,77.47
2022-10-25T01:19:16.313Z,83.37
2022-10-25T01:21:56.726Z,75.60
2022-10-25T01:24:54.848Z,74.12
2022-10-25T01:27:43.464Z,73.15
2022-10-25T01:30:23.485Z,76.00
2022-10-25T01:32:58.810Z,79.28
2022-10-25T01:35:29.997Z,74.53
2022-10-25T01:38:05.765Z,73.18
2022-10-25T01:40:39.314Z,72.47
2022-10-25T01:43:38.997Z,67.10
2022-10-25T01:46:34.317Z,70.68
2022-10-25T01:49:06.645Z,71.93
2022-10-25T01:51:37.527Z,70.22
2022-10-25T01:54:17.664Z,64.22
2022-10-25T01:57:17.476Z,70.90
2022-10-25T02:00:08.385Z,68.28
2022-10-25T02:02:49.044Z,56.33
2022-10-25T02:05:44.528Z,65.62
2022-10-25T02:08:43.210Z,66.83
2022-10-25T02:11:23.978Z,59.78
2022-10-25T02:14:00.424Z,69.03
2022-10-25T02:16:49.425Z,65.82
2022-10-25T02:19:21.195Z,66.90
2022-10-25T02:21:48.785Z,63.95
2022-10-25T02:24:18.125Z,65.55
2022-10-25T02:26:45.489Z,49.60
2022-10-25T02:29:13.100Z,50.42
2022-10-25T02:31:40.593Z,49.80
2022-10-25T02:34:07.963Z,42.85
2022-10-25T02:36:35.557Z,46.35
2022-10-25T02:39:03.288Z,46.72
2022-10-25T02:41:30.607Z,42.78
2022-10-25T02:43:58.173Z,46.37
2022-10-25T02:46:25.563Z,49.28
2022-10-25T02:48:52.899Z,45.45
2022-10-25T02:51:20.545Z,41.92
2022-10-25T02:53:48.098Z,46.50
2022-10-25T02:56:17.172Z,48.13
2022-10-25T02:58:44.885Z,41.25
2022-10-25T03:01:13.129Z,46.72
2022-10-25T03:03:40.746Z,43.13
2022-10-25T03:06:08.567Z,40.58
2022-10-25T03:08:35.980Z,39.25
2022-10-25T03:11:03.427Z,35.05
2022-10-25T03:13:31.184Z,38.72
2022-10-25T03:15:58.479Z,36.45
2022-10-25T03:18:25.897Z,35.83
2022-10-25T03:20:57.037Z,30.90
2022-10-25T03:23:24.586Z,33.03
2022-10-25T03:25:54.283Z,31.92
2022-10-25T03:28:22.096Z,30.55
2022-10-25T03:30:49.402Z,32.22
2022-10-25T03:33:16.768Z,30.98
2022-10-25T03:35:44.353Z,28.42
2022-10-25T03:38:11.693Z,28.17
2022-10-25T03:40:39.024Z,28.27
2022-10-25T03:43:06.584Z,27.87
2022-10-25T03:45:33.889Z,30.20
2022-10-25T03:48:01.211Z,31.27
2022-10-25T03:50:28.833Z,31.23
2022-10-25T03:52:56.245Z,30.33
2022-10-25T03:55:23.580Z,32.33
2022-10-25T03:57:51.164Z,30.95
2022-10-25T04:00:18.538Z,27.02
2022-10-25T04:02:46.193Z,31.87
2022-10-25T04:05:13.542Z,32.25
2022-10-25T04:07:40.853Z,31.25
2022-10-25T04:10:08.909Z,28.55
2022-10-25T04:12:36.234Z,29.27
2022-10-25T04:15:03.690Z,29.52
2022-10-25T04:17:31.329Z,30.05
2022-10-25T04:19:58.740Z,28.50
2022-10-25T04:22:26.093Z,30.52
2022-10-25T04:24:53.693Z,27.62
2022-10-25T04:27:20.993Z,31.80
2022-10-25T04:29:48.321Z,26.58
2022-10-25T04:32:15.913Z,27.75
2022-10-25T04:34:43.220Z,31.80
2022-10-25T04:37:10.533Z,26.87
2022-10-25T04:39:38.090Z,30.95
2022-10-25T04:42:05.507Z,26.80
2022-10-25T04:44:32.834Z,25.73
2022-10-25T04:47:00.390Z,24.70
2022-10-25T04:49:27.734Z,23.08
2022-10-25T04:51:55.057Z,24.77
2022-10-25T04:54:23.085Z,29.73
2022-10-25T04:56:50.401Z,25.37
2022-10-25T04:59:17.765Z,26.85
2022-10-25T05:01:45.451Z,30.15
2022-10-25T05:04:12.885Z,26.75
2022-10-25T05:06:40.179Z,27.10
2022-10-25T05:09:07.753Z,27.60
2022-10-25T05:14:07.573Z,22.13
2022-10-25T05:16:35.351Z,26.50
2022-10-25T05:19:02.688Z,23.38
2022-10-25T05:21:31.124Z,21.33
2022-10-25T05:24:01.669Z,22.55
2022-10-25T05:26:30.503Z,20.77
2022-10-25T05:28:58.067Z,20.70
2022-10-25T05:31:26.904Z,20.90
2022-10-25T05:33:56.463Z,19.70
2022-10-25T05:36:23.806Z,18.05
2022-10-25T05:38:51.278Z,18.55
2022-10-25T05:41:19.237Z,18.37
2022-10-25T05:43:46.686Z,19.15
2022-10-25T05:46:19.238Z,22.30
2022-10-25T05:48:48.927Z,19.83
2022-10-25T05:51:35.159Z,19.12
2022-10-25T05:54:10.458Z,21.30
2022-10-25T05:56:37.920Z,20.05
2022-10-25T05:59:09.866Z,18.48
2022-10-25T06:01:41.418Z,21.92
2022-10-25T06:04:09.590Z,20.70
2022-10-25T06:06:37.462Z,21.33
2022-10-25T06:09:05.246Z,19.12
2022-10-25T06:11:33.157Z,19.92
2022-10-25T06:14:00.537Z,21.90
2022-10-25T06:16:28.024Z,20.37
2022-10-25T06:18:55.829Z,22.70
2022-10-25T06:21:24.777Z,21.73
2022-10-25T06:23:52.204Z,20.67
2022-10-25T06:26:24.036Z,29.08
2022-10-25T06:28:52.492Z,21.55
2022-10-25T06:31:20.155Z,24.25
2022-10-25T06:33:47.584Z,22.48
2022-10-25T06:36:16.916Z,23.12
2022-10-25T06:38:45.258Z,21.27
2022-10-25T06:41:26.208Z,19.50
2022-10-25T06:43:54.197Z,20.33
2022-10-25T06:46:23.739Z,21.45
2022-10-25T06:48:51.960Z,20.25
2022-10-25T06:51:19.686Z,18.35
2022-10-25T06:53:47.157Z,18.58
2022-10-25T06:56:15.737Z,17.58
2022-10-25T06:58:44.947Z,15.52
2022-10-25T07:01:15.017Z,15.38
2022-10-25T07:03:42.998Z,16.92
2022-10-25T07:06:11.790Z,25.33
2022-10-25T07:08:40.342Z,18.12
2022-10-25T07:11:08.901Z,19.23
2022-10-25T07:13:36.229Z,16.90
2022-10-25T07:16:08.101Z,18.80
2022-10-25T07:18:36.272Z,14.73
2022-10-25T07:21:05.526Z,15.52
2022-10-25T07:23:33.181Z,12.52
2022-10-25T07:26:00.819Z,16.45
2022-10-25T07:28:28.313Z,14.50
2022-10-25T07:30:55.716Z,13.10
2022-10-25T07:33:23.327Z,13.57
2022-10-25T07:36:06.537Z,14.20
2022-10-25T07:38:38.289Z,15.18
2022-10-25T07:41:05.731Z,14.13
2022-10-25T07:43:33.121Z,12.95
2022-10-25T07:46:00.766Z,12.90
2022-10-25T07:48:28.131Z,16.20
2022-10-25T07:50:55.521Z,11.40
2022-10-25T07:53:23.565Z,11.30
2022-10-25T07:55:53.054Z,10.95
2022-10-25T07:58:20.383Z,11.32
2022-10-25T08:00:48.311Z,10.95
2022-10-25T08:03:16.701Z,12.15
2022-10-25T08:05:45.279Z,15.63
2022-10-25T08:08:13.308Z,11.68
2022-10-25T08:10:43.533Z,14.70
2022-10-25T08:13:11.153Z,14.75
2022-10-25T08:15:40.847Z,10.13
2022-10-25T08:18:09.671Z,12.57
2022-10-25T08:20:56.773Z,13.45
2022-10-25T08:23:26.889Z,14.63
2022-10-25T08:25:54.367Z,11.82
2022-10-25T08:28:21.712Z,17.58
2022-10-25T08:30:49.391Z,15.73
2022-10-25T08:33:16.788Z,16.95
2022-10-25T08:35:44.173Z,16.90
2022-10-25T08:38:11.762Z,11.98
2022-10-25T08:40:59.574Z,16.87
2022-10-25T08:43:40.626Z,14.32
2022-10-25T08:46:29.167Z,17.75
2022-10-25T08:49:21.071Z,15.38
2022-10-25T08:51:48.945Z,13.65
2022-10-25T08:54:42.920Z,15.00
2022-10-25T08:57:24.206Z,15.88
2022-10-25T08:59:59.095Z,14.25
2022-10-25T09:02:41.646Z,16.23
2022-10-25T09:05:38.579Z,13.55
2022-10-25T09:08:31.136Z,13.88
2022-10-25T09:11:36.439Z,12.25
2022-10-25T09:14:45.652Z,15.32
2022-10-25T09:17:22.662Z,12.20
2022-10-25T09:20:08.825Z,14.38
2022-10-25T09:22:46.311Z,14.55
2022-10-25T09:25:17.926Z,16.67
2022-10-25T09:27:58.134Z,14.18
2022-10-25T09:30:25.536Z,16.62
2022-10-25T09:32:56.685Z,13.27
2022-10-25T09:35:35.087Z,13.52
2022-10-25T09:38:15.942Z,16.15
2022-10-25T09:41:02.633Z,12.60
2022-10-25T09:43:39.645Z,15.07
2022-10-25T09:46:15.980Z,12.37
2022-10-25T09:48:48.074Z,12.37
2022-10-25T09:51:43.913Z,10.80
2022-10-25T09:54:15.653Z,13.90
2022-10-25T09:56:43.031Z,10.70
2022-10-25T09:59:13.491Z,11.50
2022-10-25T10:01:40.915Z,14.63
2022-10-25T10:04:38.018Z,12.30
2022-10-25T10:07:13.616Z,11.15
2022-10-25T10:09:45.707Z,13.60
2022-10-25T10:12:26.089Z,14.87
2022-10-25T10:14:58.487Z,12.30
2022-10-25T10:17:25.877Z,13.77
2022-10-25T10:20:14.012Z,11.88
2022-10-25T10:22:46.716Z,10.80
2022-10-25T10:25:16.376Z,13.30
2022-10-25T10:27:44.095Z,14.48
2022-10-25T10:30:20.694Z,10.95
2022-10-25T10:32:49.100Z,16.60
2022-10-25T10:35:36.417Z,10.45
2022-10-25T10:38:26.720Z,12.90
2022-10-25T10:41:27.442Z,12.88
2022-10-25T10:44:10.964Z,12.10
2022-10-25T10:46:46.320Z,10.65
2022-10-25T10:49:14.359Z,9.13
2022-10-25T10:51:44.740Z,9.57
2022-10-25T10:54:13.432Z,9.07
2022-10-25T10:56:41.068Z,9.05
2022-10-25T10:59:24.676Z,11.57
2022-10-25T11:01:52.421Z,10.18
2022-10-25T11:04:21.018Z,9.35
2022-10-25T11:06:50.381Z,9.35
2022-10-25T11:09:24.933Z,7.37
2022-10-25T11:12:06.664Z,8.02
2022-10-25T11:14:34.345Z,6.60
2022-10-25T11:17:14.892Z,7.18
2022-10-25T11:20:03.261Z,5.72
2022-10-25T11:22:36.503Z,7.95
2022-10-25T11:25:13.353Z,9.18
2022-10-25T11:30:21.442Z,7.30
2022-10-25T11:33:03.895Z,7.57
2022-10-25T11:35:59.610Z,6.68
2022-10-25T11:38:42.132Z,8.43
2022-10-25T11:41:29.341Z,9.27
2022-10-25T11:44:02.901Z,8.77
2022-10-25T11:46:48.229Z,5.37
2022-10-25T11:49:50.005Z,6.20
2022-10-25T11:52:28.282Z,6.65
2022-10-25T11:57:50.760Z,6.30
2022-10-25T12:00:22.645Z,5.68
2022-10-25T12:02:57.741Z,6.65
2022-10-25T12:05:43.616Z,7.10
2022-10-25T12:11:03.105Z,5.32
2022-10-25T12:13:40.771Z,5.28
2022-10-25T12:16:12.705Z,3.87
2022-10-25T12:18:44.245Z,5.40
2022-10-25T12:21:15.322Z,5.60
2022-10-25T12:23:45.510Z,4.00
2022-10-25T12:26:26.788Z,4.65
2022-10-25T12:28:54.460Z,4.53
2022-10-25T12:31:23.725Z,5.22
2022-10-25T12:33:57.643Z,3.92
2022-10-25T12:36:32.538Z,5.93
2022-10-25T12:39:00.888Z,4.82
2022-10-25T12:41:31.056Z,5.60
2022-10-25T12:44:16.963Z,5.80
2022-10-25T12:47:12.250Z,6.55
2022-10-25T12:50:07.287Z,4.95
2022-10-25T12:52:38.797Z,7.80
2022-10-25T12:55:28.848Z,5.85
2022-10-25T12:58:22.572Z,5.62
2022-10-25T13:00:52.732Z,6.00
2022-10-25T13:03:48.187Z,6.35
2022-10-25T13:06:29.498Z,7.62
2022-10-25T13:09:09.816Z,5.62
2022-10-25T13:11:59.570Z,7.22
2022-10-25T13:14:57.556Z,5.68
2022-10-25T13:17:39.121Z,5.07
2022-10-25T13:22:51.337Z,5.03
2022-10-25T13:25:48.025Z,5.90
2022-10-25T13:28:15.194Z,6.65
2022-10-25T13:30:43.626Z,7.35
2022-10-25T13:33:24.292Z,5.90
2022-10-25T13:35:51.754Z,3.40
2022-10-25T13:38:33.221Z,7.87
2022-10-25T13:41:18.634Z,3.20
2022-10-25T13:44:02.540Z,4.07
2022-10-25T13:46:34.908Z,7.50
2022-10-25T13:49:04.676Z,2.50
2022-10-25T13:51:32.583Z,2.70
2022-10-25T13:54:02.669Z,5.30
2022-10-25T13:56:29.862Z,6.90
2022-10-25T13:58:58.111Z,8.48
2022-10-25T14:01:25.700Z,4.85
2022-10-25T14:03:56.570Z,4.82
2022-10-25T14:06:29.894Z,4.55
2022-10-25T14:09:16.340Z,4.12
2022-10-25T14:11:52.512Z,4.03
2022-10-25T14:14:36.081Z,3.53
2022-10-25T14:17:26.751Z,4.25
2022-10-25T14:19:58.847Z,3.35
2022-10-25T14:22:50.353Z,7.75
2022-10-25T14:25:17.864Z,3.67
2022-10-25T14:27:45.436Z,4.93
2022-10-25T14:32:59.385Z,4.22
2022-10-25T14:35:34.424Z,7.18
2022-10-25T14:38:02.742Z,3.72
2022-10-25T14:40:30.929Z,4.78
2022-10-25T14:43:20.078Z,2.00
2022-10-25T14:46:02.852Z,4.47
2022-10-25T14:48:30.311Z,4.22
2022-10-25T14:50:59.418Z,5.50
2022-10-25T14:53:28.486Z,5.70
2022-10-25T14:56:01.334Z,3.53
2022-10-25T14:58:39.927Z,5.22
2022-10-25T15:01:07.400Z,3.97
2022-10-25T15:03:35.130Z,5.18
2022-10-25T15:06:02.446Z,4.53
2022-10-25T15:08:38.829Z,10.75
2022-10-25T15:11:10.448Z,10.55
2022-10-25T15:13:37.870Z,12.15
2022-10-25T15:16:33.473Z,16.92
2022-10-25T15:19:14.301Z,18.00
2022-10-25T15:21:51.311Z,14.38
2022-10-25T15:24:23.710Z,11.25
2022-10-25T15:26:54.619Z,11.15
2022-10-25T15:29:40.355Z,8.93
2022-10-25T15:32:13.651Z,6.47
2022-10-25T15:34:42.160Z,9.18
2022-10-25T15:37:11.438Z,4.95
2022-10-25T15:39:38.765Z,9.57
2022-10-25T15:42:07.102Z,4.40
2022-10-25T15:44:35.784Z,6.05
2022-10-25T15:47:03.115Z,6.93
2022-10-25T15:52:03.170Z,6.62
2022-10-25T15:54:30.766Z,5.03
2022-10-25T15:56:58.081Z,7.07
2022-10-25T15:59:25.464Z,5.10
2022-10-25T16:01:53.577Z,5.70
2022-10-25T16:04:21.334Z,4.65
2022-10-25T16:06:57.901Z,6.12
2022-10-25T16:09:32.350Z,5.72
2022-10-25T16:11:59.734Z,5.50
2022-10-25T16:14:27.447Z,12.40
2022-10-25T16:16:54.748Z,10.90
2022-10-25T16:19:22.191Z,11.32
2022-10-25T16:21:49.834Z,14.48
2022-10-25T16:24:17.179Z,8.80
2022-10-25T16:26:46.233Z,15.13
2022-10-25T16:29:21.281Z,14.65
2022-10-25T16:31:48.609Z,13.55
2022-10-25T16:34:17.439Z,10.10
2022-10-25T16:36:45.613Z,17.15
2022-10-25T16:39:13.065Z,15.98
2022-10-25T16:41:42.164Z,10.95
2022-10-25T16:44:13.261Z,9.88
2022-10-25T16:46:40.960Z,19.00
2022-10-25T16:49:11.368Z,10.63
2022-10-25T16:51:38.894Z,9.30
2022-10-25T16:54:06.650Z,7.35
2022-10-25T16:56:33.970Z,8.18
2022-10-25T16:59:01.407Z,5.60
2022-10-25T17:01:34.245Z,5.25
2022-10-25T17:04:03.956Z,5.82
2022-10-25T17:06:46.952Z,8.63
2022-10-25T17:09:14.300Z,6.97
2022-10-25T17:11:42.236Z,6.28
2022-10-25T17:14:10.268Z,11.43
2022-10-25T17:16:41.279Z,12.90
2022-10-25T17:19:11.432Z,18.27
2022-10-25T17:21:39.032Z,12.48
2022-10-25T17:24:08.462Z,14.02
2022-10-25T17:26:36.211Z,12.88
2022-10-25T17:29:03.872Z,11.60
2022-10-25T17:31:32.689Z,12.77
2022-10-25T17:34:00.742Z,8.80
2022-10-25T17:36:29.106Z,8.63
2022-10-25T17:38:56.421Z,7.95
2022-10-25T17:41:24.006Z,8.13
2022-10-25T17:43:54.530Z,10.43
2022-10-25T17:46:26.116Z,5.45
2022-10-25T17:48:53.831Z,7.47
2022-10-25T17:51:21.180Z,8.07
2022-10-25T17:53:54.189Z,8.90
2022-10-25T17:56:22.429Z,12.23
2022-10-25T17:58:50.126Z,9.38
2022-10-25T18:01:19.602Z,8.60
2022-10-25T18:03:47.313Z,17.77
2022-10-25T18:06:16.827Z,17.90
2022-10-25T18:08:45.449Z,35.50
2022-10-25T18:11:19.348Z,17.73
2022-10-25T18:13:46.688Z,15.80
2022-10-25T18:16:14.360Z,18.35
2022-10-25T18:18:41.686Z,32.38
2022-10-25T18:21:10.474Z,31.95
2022-10-25T18:23:38.083Z,25.70
2022-10-25T18:26:06.080Z,25.70
2022-10-25T18:28:33.842Z,24.40
2022-10-25T18:31:02.161Z,27.25
2022-10-25T18:33:30.215Z,36.05
2022-10-25T18:36:09.548Z,29.00
2022-10-25T18:38:37.275Z,25.55
2022-10-25T18:41:08.697Z,24.05
2022-10-25T18:43:36.046Z,25.65
2022-10-25T18:46:03.683Z,26.08
2022-10-25T18:48:31.160Z,22.45
2022-10-25T18:51:09.806Z,23.67
2022-10-25T18:53:39.373Z,20.20
2022-10-25T18:56:10.716Z,26.58
2022-10-25T18:58:38.696Z,29.02
2022-10-25T19:01:10.453Z,24.87
2022-10-25T19:03:38.128Z,21.23
2022-10-25T19:06:06.130Z,21.45
2022-10-25T19:08:34.284Z,36.03
2022-10-25T19:11:09.953Z,22.48
2022-10-25T19:13:37.442Z,19.60
2022-10-25T19:16:05.376Z,18.80
2022-10-25T19:18:33.253Z,17.25
2022-10-25T19:21:04.959Z,19.27
2022-10-25T19:23:32.666Z,17.27
2022-10-25T19:26:04.347Z,18.08
2022-10-25T19:28:32.088Z,17.83
2022-10-25T19:31:06.037Z,16.48
2022-10-25T19:33:33.382Z,14.55
2022-10-25T19:36:08.821Z,17.48
2022-10-25T19:38:36.617Z,15.63
2022-10-25T19:41:05.410Z,18.45
2022-10-25T19:43:33.024Z,16.40
2022-10-25T19:46:01.585Z,15.15
2022-10-25T19:48:29.198Z,18.33
2022-10-25T19:50:56.728Z,16.50
2022-10-25T19:53:24.092Z,16.20
2022-10-25T19:56:05.900Z,15.35
2022-10-25T19:58:33.261Z,18.55
2022-10-25T20:01:11.826Z,16.17
2022-10-25T20:03:39.661Z,14.30
2022-10-25T20:06:21.631Z,13.90
2022-10-25T20:08:52.231Z,14.10
2022-10-25T20:11:19.643Z,16.42
2022-10-25T20:13:46.983Z,16.00
2022-10-25T20:16:14.689Z,15.48
2022-10-25T20:18:42.139Z,14.02
2022-10-25T20:21:11.491Z,12.98
2022-10-25T20:23:39.559Z,12.75
2022-10-25T20:26:23.125Z,13.13
2022-10-25T20:28:54.595Z,10.48
2022-10-25T20:31:23.054Z,9.18
2022-10-25T20:33:50.755Z,8.80
2022-10-25T20:36:18.162Z,11.88
2022-10-25T20:38:45.653Z,15.25
2022-10-25T20:41:14.861Z,12.88
2022-10-25T20:43:44.981Z,10.40
2022-10-25T20:46:13.321Z,11.65
2022-10-25T20:48:40.689Z,12.40
2022-10-25T20:51:08.178Z,17.48
2022-10-25T20:53:36.296Z,13.07
2022-10-25T20:56:03.792Z,12.18
2022-10-25T20:58:31.153Z,12.88
2022-10-25T21:00:58.725Z,13.38
2022-10-25T21:03:26.777Z,11.12
2022-10-25T21:05:56.878Z,10.88
2022-10-25T21:08:24.767Z,15.20
2022-10-25T21:11:02.688Z,11.68
2022-10-25T21:13:31.748Z,12.48
2022-10-25T21:15:59.099Z,14.95
2022-10-25T21:18:27.130Z,11.43
2022-10-25T21:20:55.416Z,10.55
2022-10-25T21:23:22.721Z,13.05
2022-10-25T21:25:57.368Z,10.60
2022-10-25T21:28:26.325Z,9.32
2022-10-25T21:30:53.999Z,10.68
2022-10-25T21:33:21.338Z,10.63
2022-10-25T21:35:49.251Z,7.93
2022-10-25T21:38:16.579Z,10.30
2022-10-25T21:40:43.912Z,8.68
2022-10-25T21:43:11.489Z,11.18
2022-10-25T21:45:42.147Z,12.02
2022-10-25T21:48:09.543Z,10.07
2022-10-25T21:50:37.145Z,8.32
2022-10-25T21:53:04.551Z,8.73
2022-10-25T21:55:31.882Z,7.10
2022-10-25T21:57:59.682Z,8.38
2022-10-25T22:00:27.292Z,10.43
2022-10-25T22:02:54.940Z,7.30
2022-10-25T22:05:22.242Z,7.53
2022-10-25T22:07:49.923Z,8.20
2022-10-25T22:10:17.802Z,10.55
2022-10-25T22:12:45.253Z,10.48
2022-10-25T22:15:12.805Z,13.05
2022-10-25T22:17:40.372Z,10.82
2022-10-25T22:20:08.193Z,9.13
2022-10-25T22:22:35.549Z,8.27
2022-10-25T22:25:03.182Z,9.18
2022-10-25T22:27:30.515Z,11.65
2022-10-25T22:29:57.828Z,12.82
2022-10-25T22:32:25.381Z,7.75
2022-10-25T22:34:52.698Z,7.70
2022-10-25T22:37:19.986Z,10.20
2022-10-25T22:39:47.585Z,11.00
2022-10-25T22:42:15.221Z,11.15
2022-10-25T22:44:42.545Z,9.48
2022-10-25T22:47:10.200Z,9.20
2022-10-25T22:49:37.490Z,10.13
2022-10-25T22:52:04.783Z,9.13
2022-10-25T22:54:32.407Z,9.65
2022-10-25T22:56:59.701Z,9.13
2022-10-25T22:59:27.025Z,8.00
2022-10-25T23:01:54.619Z,15.23
2022-10-25T23:04:22.070Z,13.23
2022-10-25T23:06:49.426Z,10.38
2022-10-25T23:09:17.047Z,9.35
2022-10-25T23:11:45.950Z,9.80
2022-10-25T23:14:16.572Z,13.15
2022-10-25T23:16:45.921Z,14.70
2022-10-25T23:19:13.247Z,9.40
2022-10-25T23:21:40.552Z,7.85
2022-10-25T23:24:09.059Z,8.70
2022-10-25T23:26:36.653Z,8.98
2022-10-25T23:29:04.335Z,9.20
2022-10-25T23:31:31.944Z,10.27
2022-10-25T23:34:00.016Z,9.25
2022-10-25T23:36:28.603Z,10.57
2022-10-25T23:38:56.376Z,11.98
2022-10-25T23:41:23.782Z,7.45
2022-10-25T23:43:51.182Z,9.00
2022-10-25T23:46:18.764Z,9.45
2022-10-25T23:48:46.132Z,8.45
2022-10-25T23:51:15.206Z,9.82
2022-10-25T23:53:42.861Z,8.68
2022-10-25T23:56:10.823Z,10.95
2022-10-25T23:58:38.466Z,9.23
